createdAt,value
2023-05-17T00:00:38.370Z,100144.48
2023-05-17T00:03:17.476Z,100144.61
2023-05-17T00:05:44.829Z,100145.13
2023-05-17T00:08:12.738Z,100145.13
2023-05-17T00:10:40.002Z,100143.85
2023-05-17T00:13:07.118Z,100142.52
2023-05-17T00:15:34.584Z,100144.21
2023-05-17T00:18:03.727Z,100142.73
2023-05-17T00:20:31.150Z,100144.23
2023-05-17T00:22:58.365Z,100143.63
2023-05-17T00:25:25.587Z,100139.98
2023-05-17T00:27:52.922Z,100142.80
2023-05-17T00:30:20.061Z,100144.08
2023-05-17T00:32:48.600Z,100141.54
2023-05-17T00:35:16.197Z,100143.71
2023-05-17T00:37:48.034Z,100141.95
2023-05-17T00:40:18.535Z,100144.27
2023-05-17T00:42:45.729Z,100147.02
2023-05-17T00:45:12.847Z,100147.13
2023-05-17T00:47:40.658Z,100148.95
2023-05-17T00:50:08.283Z,100143.61
2023-05-17T00:52:36.523Z,100143.44
2023-05-17T00:55:04.228Z,100139.52
2023-05-17T00:57:32.366Z,100144.60
2023-05-17T01:00:01.862Z,100143.72
2023-05-17T01:02:29.263Z,100146.05
2023-05-17T01:04:57.863Z,100146.27
2023-05-17T01:07:25.119Z,100151.95
2023-05-17T01:09:52.827Z,100156.97
2023-05-17T01:12:37.309Z,100151.71
2023-05-17T01:15:15.783Z,100153.76
2023-05-17T01:18:01.486Z,100145.64
2023-05-17T01:20:41.628Z,100142.76
2023-05-17T01:23:28.243Z,100141.58
2023-05-17T01:26:00.880Z,100142.85
2023-05-17T01:28:29.845Z,100142.23
2023-05-17T01:30:58.818Z,100151.62
2023-05-17T01:33:26.778Z,100151.35
2023-05-17T01:35:53.879Z,100150.86
2023-05-17T01:38:21.293Z,100143.60
2023-05-17T01:41:01.052Z,100142.11
2023-05-17T01:43:57.279Z,100137.50
2023-05-17T01:46:32.215Z,100144.28
2023-05-17T01:49:31.545Z,100144.21
2023-05-17T01:52:05.510Z,100148.31
2023-05-17T01:54:43.784Z,100150.69
2023-05-17T01:57:13.145Z,100152.95
2023-05-17T01:59:41.339Z,100155.96
2023-05-17T02:02:11.595Z,100160.21
2023-05-17T02:04:38.919Z,100157.71
2023-05-17T02:07:06.160Z,100158.08
2023-05-17T02:09:33.355Z,100150.81
2023-05-17T02:12:00.825Z,100146.16
2023-05-17T02:14:27.940Z,100141.98
2023-05-17T02:16:55.148Z,100139.45
2023-05-17T02:19:22.474Z,100137.00
2023-05-17T02:21:49.636Z,100140.75
2023-05-17T02:24:16.806Z,100141.48
2023-05-17T02:26:45.953Z,100141.52
2023-05-17T02:29:13.181Z,100148.33
2023-05-17T02:31:40.452Z,100153.31
2023-05-17T02:34:07.619Z,100153.18
2023-05-17T02:36:35.066Z,100149.44
2023-05-17T02:39:02.246Z,100147.64
2023-05-17T02:41:29.437Z,100151.58
2023-05-17T02:43:58.429Z,100149.40
2023-05-17T02:46:26.962Z,100146.52
2023-05-17T02:48:54.138Z,100153.02
2023-05-17T02:51:21.390Z,100158.25
2023-05-17T02:53:48.778Z,100163.38
2023-05-17T02:56:15.983Z,100167.30
2023-05-17T02:58:43.557Z,100166.45
2023-05-17T03:01:10.819Z,100170.00
2023-05-17T03:03:38.213Z,100172.70
2023-05-17T03:06:06.067Z,100167.76
2023-05-17T03:08:33.708Z,100166.62
2023-05-17T03:11:01.938Z,100166.86
2023-05-17T03:13:29.305Z,100163.64
2023-05-17T03:15:56.470Z,100166.23
2023-05-17T03:18:23.824Z,100163.52
2023-05-17T03:20:51.424Z,100169.77
2023-05-17T03:23:19.022Z,100179.42
2023-05-17T03:25:52.640Z,100191.17
2023-05-17T03:28:20.689Z,100192.41
2023-05-17T03:30:48.243Z,100185.16
2023-05-17T03:33:15.824Z,100181.73
2023-05-17T03:35:43.573Z,100177.11
2023-05-17T03:38:10.846Z,100178.68
2023-05-17T03:40:38.085Z,100180.19
2023-05-17T03:43:05.568Z,100188.39
2023-05-17T03:45:33.131Z,100195.25
2023-05-17T03:48:00.339Z,100198.86
2023-05-17T03:50:28.284Z,100201.74
2023-05-17T03:52:56.220Z,100196.84
2023-05-17T03:55:24.225Z,100195.83
2023-05-17T03:57:51.368Z,100197.62
2023-05-17T04:00:22.183Z,100197.42
2023-05-17T04:02:51.142Z,100200.26
2023-05-17T04:05:19.573Z,100203.73
2023-05-17T04:07:47.915Z,100204.41
2023-05-17T04:10:15.217Z,100209.34
2023-05-17T04:12:42.442Z,100213.56
2023-05-17T04:15:10.140Z,100217.81
2023-05-17T04:17:37.793Z,100211.93
2023-05-17T04:20:06.809Z,100208.90
2023-05-17T04:22:34.559Z,100210.68
2023-05-17T04:25:01.782Z,100209.59
2023-05-17T04:27:29.352Z,100213.73
2023-05-17T04:29:56.692Z,100208.02
2023-05-17T04:32:24.278Z,100208.67
2023-05-17T04:34:52.247Z,100210.39
2023-05-17T04:37:20.230Z,100216.93
2023-05-17T04:39:49.149Z,100215.54
2023-05-17T04:42:16.565Z,100218.64
2023-05-17T04:44:48.113Z,100224.58
2023-05-17T04:47:15.321Z,100221.73
2023-05-17T04:49:43.404Z,100220.92
2023-05-17T04:52:10.634Z,100227.27
2023-05-17T04:54:37.877Z,100228.91
2023-05-17T04:57:05.319Z,100224.83
2023-05-17T04:59:48.234Z,100224.02
2023-05-17T05:02:15.445Z,100220.52
2023-05-17T05:04:42.669Z,100223.08
2023-05-17T05:07:11.446Z,100226.11
2023-05-17T05:09:38.855Z,100219.14
2023-05-17T05:12:07.334Z,100217.31
2023-05-17T05:14:35.225Z,100216.21
2023-05-17T05:17:02.756Z,100214.05
2023-05-17T05:19:30.102Z,100215.39
2023-05-17T05:21:58.171Z,100214.16
2023-05-17T05:24:25.443Z,100218.83
2023-05-17T05:26:53.690Z,100221.13
2023-05-17T05:29:21.979Z,100219.87
2023-05-17T05:31:49.184Z,100219.98
2023-05-17T05:34:16.692Z,100221.39
2023-05-17T05:36:44.265Z,100226.43
2023-05-17T05:39:12.726Z,100232.06
2023-05-17T05:41:40.107Z,100236.64
2023-05-17T05:44:07.826Z,100242.06
2023-05-17T05:46:34.883Z,100240.44
2023-05-17T05:49:02.982Z,100238.20
2023-05-17T05:51:31.752Z,100243.83
2023-05-17T05:54:00.140Z,100244.23
2023-05-17T05:56:28.266Z,100250.59
2023-05-17T05:58:57.684Z,100256.58
2023-05-17T06:01:25.477Z,100258.02
2023-05-17T06:03:52.716Z,100259.38
2023-05-17T06:06:20.031Z,100262.89
2023-05-17T06:08:47.505Z,100269.80
2023-05-17T06:11:14.933Z,100269.16
2023-05-17T06:13:42.055Z,100270.46
2023-05-17T06:16:09.246Z,100272.55
2023-05-17T06:18:36.783Z,100270.80
2023-05-17T06:21:04.263Z,100265.95
2023-05-17T06:23:31.431Z,100261.91
2023-05-17T06:25:58.568Z,100259.88
2023-05-17T06:28:26.388Z,100257.98
2023-05-17T06:30:53.589Z,100255.08
2023-05-17T06:33:20.798Z,100254.89
2023-05-17T06:38:21.776Z,100248.24
2023-05-17T06:40:53.298Z,100246.02
2023-05-17T06:43:20.510Z,100252.52
2023-05-17T06:45:47.942Z,100255.03
2023-05-17T06:48:15.745Z,100256.15
2023-05-17T06:50:43.031Z,100261.03
2023-05-17T06:53:10.267Z,100260.96
2023-05-17T06:55:37.591Z,100270.16
2023-05-17T06:58:04.784Z,100277.48
2023-05-17T07:00:32.589Z,100279.86
2023-05-17T07:03:00.338Z,100281.88
2023-05-17T07:05:29.501Z,100282.49
2023-05-17T07:07:59.275Z,100291.51
2023-05-17T07:10:26.515Z,100297.58
2023-05-17T07:12:53.649Z,100307.77
2023-05-17T07:15:20.746Z,100311.94
2023-05-17T07:17:48.083Z,100316.80
2023-05-17T07:20:15.584Z,100321.89
2023-05-17T07:22:42.769Z,100322.08
2023-05-17T07:25:10.620Z,100321.73
2023-05-17T07:27:37.717Z,100322.86
2023-05-17T07:30:05.500Z,100319.64
2023-05-17T07:32:32.885Z,100324.70
2023-05-17T07:35:00.100Z,100324.46
2023-05-17T07:37:27.261Z,100327.30
2023-05-17T07:39:54.461Z,100333.70
2023-05-17T07:42:21.640Z,100339.67
2023-05-17T07:44:50.058Z,100348.00
2023-05-17T07:47:17.377Z,100349.86
2023-05-17T07:49:44.637Z,100354.92
2023-05-17T07:52:12.185Z,100355.47
2023-05-17T07:54:39.410Z,100353.96
2023-05-17T07:57:06.768Z,100356.85
2023-05-17T07:59:34.034Z,100354.55
2023-05-17T08:02:01.858Z,100357.73
2023-05-17T08:04:29.095Z,100358.66
2023-05-17T08:06:56.305Z,100347.38
2023-05-17T08:09:26.366Z,100347.52
2023-05-17T08:11:53.599Z,100345.38
2023-05-17T08:14:23.786Z,100348.23
2023-05-17T08:16:56.156Z,100340.67
2023-05-17T08:19:23.541Z,100336.29
2023-05-17T08:21:50.786Z,100334.70
2023-05-17T08:24:18.017Z,100330.33
2023-05-17T08:26:45.124Z,100330.35
2023-05-17T08:29:12.235Z,100329.98
2023-05-17T08:31:39.358Z,100340.08
2023-05-17T08:34:06.609Z,100338.77
2023-05-17T08:36:33.947Z,100338.65
2023-05-17T08:39:01.161Z,100338.19
2023-05-17T08:41:28.458Z,100334.43
2023-05-17T08:43:57.090Z,100336.66
2023-05-17T08:46:25.695Z,100338.17
2023-05-17T08:49:00.031Z,100339.14
2023-05-17T08:51:27.927Z,100345.34
2023-05-17T08:53:56.021Z,100347.17
2023-05-17T08:56:24.296Z,100356.25
2023-05-17T08:58:57.947Z,100362.27
2023-05-17T09:01:27.556Z,100369.31
2023-05-17T09:03:56.147Z,100368.45
2023-05-17T09:06:24.486Z,100366.40
2023-05-17T09:08:52.973Z,100364.92
2023-05-17T09:11:29.408Z,100365.08
2023-05-17T09:14:07.398Z,100369.00
2023-05-17T09:16:37.346Z,100369.17
2023-05-17T09:19:06.477Z,100369.43
2023-05-17T09:21:34.373Z,100368.03
2023-05-17T09:26:39.465Z,100357.09
2023-05-17T09:29:15.257Z,100359.30
2023-05-17T09:31:43.778Z,100359.16
2023-05-17T09:34:11.331Z,100361.46
2023-05-17T09:36:42.300Z,100361.98
2023-05-17T09:39:12.990Z,100360.88
2023-05-17T09:41:47.061Z,100359.08
2023-05-17T09:44:15.354Z,100357.08
2023-05-17T09:46:47.549Z,100355.61
2023-05-17T09:49:16.292Z,100355.30
2023-05-17T09:51:46.881Z,100355.50
2023-05-17T09:54:14.383Z,100350.27
2023-05-17T09:56:41.542Z,100346.36
2023-05-17T09:59:16.758Z,100342.14
2023-05-17T10:01:45.776Z,100336.17
2023-05-17T10:04:14.407Z,100335.52
2023-05-17T10:06:49.706Z,100330.52
2023-05-17T10:09:22.891Z,100328.38
2023-05-17T10:11:53.163Z,100325.93
2023-05-17T10:14:35.219Z,100325.30
2023-05-17T10:17:03.550Z,100331.02
2023-05-17T10:19:31.552Z,100332.11
2023-05-17T10:22:11.136Z,100340.52
2023-05-17T10:24:48.315Z,100341.88
2023-05-17T10:27:16.316Z,100343.30
2023-05-17T10:29:45.885Z,100348.63
2023-05-17T10:32:14.800Z,100351.05
2023-05-17T10:34:41.977Z,100352.90
2023-05-17T10:37:10.658Z,100352.85
2023-05-17T10:39:39.008Z,100348.95
2023-05-17T10:42:14.966Z,100344.69
2023-05-17T10:44:43.133Z,100350.02
2023-05-17T10:47:10.590Z,100353.61
2023-05-17T10:49:43.173Z,100356.67
2023-05-17T10:52:18.021Z,100359.16
2023-05-17T10:54:48.107Z,100356.45
2023-05-17T10:57:49.296Z,100358.64
2023-05-17T11:00:22.015Z,100359.16
2023-05-17T11:02:50.937Z,100352.64
2023-05-17T11:05:25.765Z,100357.52
2023-05-17T11:07:53.178Z,100362.73
2023-05-17T11:10:20.331Z,100355.31
2023-05-17T11:12:54.274Z,100352.40
2023-05-17T11:15:28.639Z,100353.40
2023-05-17T11:17:58.282Z,100355.20
2023-05-17T11:20:25.634Z,100352.45
2023-05-17T11:23:00.865Z,100348.94
2023-05-17T11:25:30.714Z,100353.41
2023-05-17T11:27:59.137Z,100358.31
2023-05-17T11:30:31.784Z,100352.54
2023-05-17T11:33:03.747Z,100352.42
2023-05-17T11:35:40.793Z,100357.49
2023-05-17T11:38:17.257Z,100364.75
2023-05-17T11:40:45.646Z,100360.03
2023-05-17T11:43:22.908Z,100357.20
2023-05-17T11:45:53.827Z,100353.11
2023-05-17T11:48:22.904Z,100355.04
2023-05-17T11:50:51.540Z,100358.41
2023-05-17T11:53:20.170Z,100360.70
2023-05-17T11:55:49.337Z,100362.52
2023-05-17T11:58:20.010Z,100364.77
2023-05-17T12:00:53.202Z,100364.84
2023-05-17T12:03:27.777Z,100370.25
2023-05-17T12:06:09.643Z,100375.96
2023-05-17T12:08:39.185Z,100380.86
2023-05-17T12:11:07.888Z,100379.25
2023-05-17T12:13:36.052Z,100379.55
2023-05-17T12:16:07.437Z,100383.63
2023-05-17T12:18:51.048Z,100378.74
2023-05-17T12:21:19.332Z,100380.36
2023-05-17T12:23:50.286Z,100382.41
2023-05-17T12:26:21.711Z,100387.18
2023-05-17T12:28:59.827Z,100388.44
2023-05-17T12:31:29.681Z,100384.77
2023-05-17T12:33:59.387Z,100396.71
2023-05-17T12:36:29.278Z,100397.33
2023-05-17T12:38:56.934Z,100402.02
2023-05-17T12:41:26.400Z,100399.48
2023-05-17T12:44:06.338Z,100401.84
2023-05-17T12:46:40.620Z,100405.05
2023-05-17T12:49:10.192Z,100404.53
2023-05-17T12:51:45.376Z,100398.50
2023-05-17T12:54:13.686Z,100403.09
2023-05-17T12:56:44.711Z,100401.98
2023-05-17T12:59:14.114Z,100402.05
2023-05-17T13:01:56.780Z,100401.39
2023-05-17T13:04:32.456Z,100402.16
2023-05-17T13:07:01.907Z,100405.45
2023-05-17T13:09:31.217Z,100407.20
2023-05-17T13:12:05.637Z,100408.60
2023-05-17T13:14:46.494Z,100407.63
2023-05-17T13:17:21.168Z,100406.48
2023-05-17T13:19:48.921Z,100404.05
2023-05-17T13:22:16.222Z,100406.00
2023-05-17T13:24:46.865Z,100406.06
2023-05-17T13:27:14.144Z,100413.15
2023-05-17T13:29:43.032Z,100417.42
2023-05-17T13:32:12.658Z,100421.77
2023-05-17T13:34:41.128Z,100431.63
2023-05-17T13:37:12.138Z,100440.14
2023-05-17T13:39:43.343Z,100440.45
2023-05-17T13:42:13.656Z,100445.39
2023-05-17T13:44:40.907Z,100441.90
2023-05-17T13:47:08.281Z,100437.99
2023-05-17T13:49:36.231Z,100448.15
2023-05-17T13:52:03.876Z,100451.67
2023-05-17T13:54:31.185Z,100457.86
2023-05-17T13:56:58.359Z,100459.39
2023-05-17T13:59:25.430Z,100456.94
2023-05-17T14:01:53.168Z,100457.34
2023-05-17T14:04:21.436Z,100465.89
2023-05-17T14:06:51.714Z,100469.23
2023-05-17T14:09:20.564Z,100466.01
2023-05-17T14:11:47.898Z,100464.88
2023-05-17T14:14:15.065Z,100463.52
2023-05-17T14:16:42.255Z,100471.14
2023-05-17T14:19:09.569Z,100469.91
2023-05-17T14:21:36.854Z,100477.16
2023-05-17T14:24:04.115Z,100474.78
2023-05-17T14:26:31.286Z,100477.67
2023-05-17T14:28:58.357Z,100479.40
2023-05-17T14:31:26.521Z,100482.48
2023-05-17T14:33:53.875Z,100492.91
2023-05-17T14:36:21.143Z,100498.10
2023-05-17T14:38:48.390Z,100503.83
2023-05-17T14:41:15.875Z,100497.71
2023-05-17T14:43:43.116Z,100499.70
2023-05-17T14:46:10.297Z,100506.33
2023-05-17T14:48:37.515Z,100508.45
2023-05-17T14:51:04.895Z,100504.44
2023-05-17T14:53:32.072Z,100495.95
2023-05-17T14:55:59.404Z,100505.80
2023-05-17T14:58:26.686Z,100508.86
2023-05-17T15:01:05.376Z,100510.73
2023-05-17T15:03:35.032Z,100511.41
2023-05-17T15:06:06.267Z,100516.83
2023-05-17T15:08:34.810Z,100519.52
2023-05-17T15:11:02.210Z,100528.84
2023-05-17T15:13:29.659Z,100533.61
2023-05-17T15:15:57.055Z,100537.85
2023-05-17T15:18:24.392Z,100533.02
2023-05-17T15:20:51.956Z,100529.42
2023-05-17T15:23:19.033Z,100529.04
2023-05-17T15:25:46.533Z,100532.08
2023-05-17T15:28:14.243Z,100536.05
2023-05-17T15:30:42.249Z,100544.99
2023-05-17T15:33:09.892Z,100550.19
2023-05-17T15:35:41.403Z,100549.88
2023-05-17T15:38:08.811Z,100556.41
2023-05-17T15:40:36.319Z,100561.02
2023-05-17T15:43:03.476Z,100569.46
2023-05-17T15:45:31.479Z,100578.26
2023-05-17T15:48:01.931Z,100579.83
2023-05-17T15:50:29.348Z,100578.48
2023-05-17T15:52:56.446Z,100582.54
2023-05-17T15:55:23.641Z,100584.03
2023-05-17T15:57:51.068Z,100584.29
2023-05-17T16:00:18.462Z,100583.74
2023-05-17T16:02:45.762Z,100588.33
2023-05-17T16:05:13.062Z,100588.35
2023-05-17T16:07:40.169Z,100599.27
2023-05-17T16:10:08.097Z,100602.98
2023-05-17T16:12:35.970Z,100613.22
2023-05-17T16:15:03.171Z,100615.70
2023-05-17T16:17:30.327Z,100622.97
2023-05-17T16:19:57.622Z,100627.62
2023-05-17T16:22:25.293Z,100631.58
2023-05-17T16:24:55.894Z,100631.83
2023-05-17T16:27:22.990Z,100636.12
2023-05-17T16:29:50.161Z,100642.20
2023-05-17T16:32:17.401Z,100648.50
2023-05-17T16:34:44.559Z,100650.64
2023-05-17T16:37:11.673Z,100650.83
2023-05-17T16:39:38.841Z,100650.53
2023-05-17T16:42:06.436Z,100655.71
2023-05-17T16:44:33.700Z,100657.36
2023-05-17T16:47:01.171Z,100661.03
2023-05-17T16:49:30.234Z,100659.84
2023-05-17T16:51:57.372Z,100665.58
2023-05-17T16:54:26.492Z,100669.27
2023-05-17T16:56:53.638Z,100670.58
2023-05-17T16:59:21.400Z,100671.39
2023-05-17T17:01:48.795Z,100675.88
2023-05-17T17:04:16.146Z,100678.10
2023-05-17T17:06:43.678Z,100683.66
2023-05-17T17:09:12.121Z,100684.33
2023-05-17T17:11:39.371Z,100688.10
2023-05-17T17:14:07.163Z,100689.20
2023-05-17T17:16:34.412Z,100696.36
2023-05-17T17:19:01.599Z,100694.77
2023-05-17T17:21:28.714Z,100699.23
2023-05-17T17:23:56.865Z,100703.75
2023-05-17T17:26:24.099Z,100715.23
2023-05-17T17:28:51.684Z,100718.23
2023-05-17T17:31:18.886Z,100716.09
2023-05-17T17:33:46.054Z,100716.80
2023-05-17T17:36:13.228Z,100721.77
2023-05-17T17:38:40.280Z,100722.96
2023-05-17T17:41:07.514Z,100726.21
2023-05-17T17:43:34.724Z,100728.02
2023-05-17T17:46:01.992Z,100728.14
2023-05-17T17:48:29.408Z,100731.05
2023-05-17T17:50:56.632Z,100734.91
2023-05-17T17:53:23.719Z,100733.92
2023-05-17T17:55:51.189Z,100731.71
2023-05-17T17:58:18.381Z,100739.73
2023-05-17T18:00:45.882Z,100743.93
2023-05-17T18:03:14.555Z,100748.98
2023-05-17T18:05:41.958Z,100753.70
2023-05-17T18:08:09.086Z,100758.46
2023-05-17T18:10:36.310Z,100761.02
2023-05-17T18:13:03.799Z,100760.75
2023-05-17T18:15:30.982Z,100763.60
2023-05-17T18:17:58.238Z,100762.54
2023-05-17T18:20:26.589Z,100766.74
2023-05-17T18:22:53.878Z,100771.84
2023-05-17T18:25:21.717Z,100776.15
2023-05-17T18:27:48.854Z,100779.65
2023-05-17T18:30:17.100Z,100780.45
2023-05-17T18:32:44.626Z,100785.13
2023-05-17T18:35:12.088Z,100786.66
2023-05-17T18:37:39.270Z,100792.48
2023-05-17T18:40:07.360Z,100795.35
2023-05-17T18:42:34.569Z,100798.98
2023-05-17T18:45:01.728Z,100801.85
2023-05-17T18:47:29.079Z,100805.85
2023-05-17T18:49:56.288Z,100808.09
2023-05-17T18:52:23.548Z,100811.13
2023-05-17T18:54:50.800Z,100814.21
2023-05-17T18:57:17.992Z,100816.46
2023-05-17T18:59:45.253Z,100819.46
2023-05-17T19:02:12.418Z,100823.28
2023-05-17T19:04:39.844Z,100824.07
2023-05-17T19:07:07.626Z,100820.59
2023-05-17T19:09:35.017Z,100818.79
2023-05-17T19:12:02.306Z,100821.87
2023-05-17T19:14:29.619Z,100822.02
2023-05-17T19:16:57.154Z,100822.64
2023-05-17T19:19:25.970Z,100827.61
2023-05-17T19:21:53.451Z,100837.79
2023-05-17T19:24:20.608Z,100840.06
2023-05-17T19:26:47.702Z,100836.81
2023-05-17T19:29:14.845Z,100835.85
2023-05-17T19:31:41.983Z,100834.41
2023-05-17T19:34:09.209Z,100840.68
2023-05-17T19:36:36.326Z,100839.21
2023-05-17T19:39:03.448Z,100846.25
2023-05-17T19:41:30.632Z,100852.59
2023-05-17T19:43:57.734Z,100850.48
2023-05-17T19:46:24.863Z,100852.09
2023-05-17T19:48:52.881Z,100855.79
2023-05-17T19:51:20.052Z,100860.77
2023-05-17T19:53:53.547Z,100859.43
2023-05-17T19:56:24.272Z,100860.41
2023-05-17T19:58:52.587Z,100863.09
2023-05-17T20:01:21.686Z,100863.29
2023-05-17T20:03:49.196Z,100868.60
2023-05-17T20:06:16.528Z,100877.27
2023-05-17T20:08:43.826Z,100878.92
2023-05-17T20:11:11.300Z,100884.97
2023-05-17T20:13:41.253Z,100883.02
2023-05-17T20:16:12.956Z,100889.81
2023-05-17T20:18:43.346Z,100890.39
2023-05-17T20:21:12.817Z,100893.02
2023-05-17T20:23:40.315Z,100893.09
2023-05-17T20:26:07.417Z,100893.77
2023-05-17T20:28:34.589Z,100896.27
2023-05-17T20:31:01.678Z,100902.83
2023-05-17T20:33:28.827Z,100904.08
2023-05-17T20:35:56.170Z,100905.73
2023-05-17T20:38:23.334Z,100908.89
2023-05-17T20:40:52.108Z,100908.34
2023-05-17T20:43:20.148Z,100907.03
2023-05-17T20:45:50.062Z,100907.20
2023-05-17T20:48:17.313Z,100909.06
2023-05-17T20:50:44.540Z,100910.11
2023-05-17T20:53:11.647Z,100910.77
2023-05-17T20:55:38.840Z,100910.52
2023-05-17T20:58:06.007Z,100912.92
2023-05-17T21:04:02.613Z,100920.28
2023-05-17T21:06:32.494Z,100920.06
2023-05-17T21:09:02.639Z,100928.36
2023-05-17T21:11:30.112Z,100933.21
2023-05-17T21:14:00.219Z,100935.34
2023-05-17T21:16:27.966Z,100936.35
2023-05-17T21:18:55.823Z,100941.18
2023-05-17T21:21:23.041Z,100941.14
2023-05-17T21:23:50.180Z,100942.61
2023-05-17T21:26:17.360Z,100944.80
2023-05-17T21:28:44.654Z,100945.16
2023-05-17T21:31:12.110Z,100947.01
2023-05-17T21:33:39.406Z,100941.48
2023-05-17T21:36:06.660Z,100941.95
2023-05-17T21:38:33.910Z,100936.58
2023-05-17T21:41:01.178Z,100935.44
2023-05-17T21:43:28.360Z,100937.24
2023-05-17T21:45:55.766Z,100939.64
2023-05-17T21:48:22.903Z,100937.73
2023-05-17T21:50:50.104Z,100935.27
2023-05-17T21:53:17.189Z,100938.02
2023-05-17T21:55:56.883Z,100939.89
2023-05-17T21:58:30.854Z,100943.11
2023-05-17T22:00:58.551Z,100943.52
2023-05-17T22:03:26.165Z,100940.39
2023-05-17T22:05:53.457Z,100942.78
2023-05-17T22:08:21.195Z,100945.45
2023-05-17T22:10:50.347Z,100947.45
2023-05-17T22:13:18.382Z,100948.16
2023-05-17T22:15:46.079Z,100948.79
2023-05-17T22:18:13.953Z,100951.17
2023-05-17T22:20:41.234Z,100954.06
2023-05-17T22:23:08.507Z,100954.97
2023-05-17T22:25:35.829Z,100957.38
2023-05-17T22:28:03.475Z,100961.09
2023-05-17T22:30:30.884Z,100967.19
2023-05-17T22:32:58.483Z,100968.17
2023-05-17T22:35:25.804Z,100965.80
2023-05-17T22:37:53.702Z,100966.28
2023-05-17T22:40:21.342Z,100964.81
2023-05-17T22:42:48.661Z,100964.41
2023-05-17T22:45:15.954Z,100968.16
2023-05-17T22:47:43.186Z,100973.82
2023-05-17T22:50:12.166Z,100972.42
2023-05-17T22:52:41.296Z,100974.45
2023-05-17T22:55:09.911Z,100979.93
2023-05-17T22:57:37.040Z,100985.60
2023-05-17T23:00:09.469Z,100988.92
2023-05-17T23:02:36.870Z,100994.24
2023-05-17T23:05:04.865Z,100997.58
2023-05-17T23:07:38.589Z,101001.58
2023-05-17T23:10:08.373Z,101001.83
2023-05-17T23:12:37.131Z,101002.13
2023-05-17T23:15:06.277Z,101005.45
2023-05-17T23:17:33.731Z,101004.65
2023-05-17T23:20:10.160Z,101009.27
2023-05-17T23:22:39.116Z,101013.38
2023-05-17T23:25:06.814Z,101015.79
2023-05-17T23:27:35.535Z,101015.73
2023-05-17T23:30:04.687Z,101017.53
2023-05-17T23:32:34.979Z,101014.42
2023-05-17T23:35:05.570Z,101017.60
2023-05-17T23:37:33.665Z,101014.81
2023-05-17T23:40:01.293Z,101012.05
2023-05-17T23:42:31.994Z,101009.95
2023-05-17T23:45:00.673Z,101009.49
2023-05-17T23:47:28.518Z,101010.03
2023-05-17T23:49:55.898Z,101012.14
2023-05-17T23:52:23.871Z,101012.83
2023-05-17T23:54:51.275Z,101015.88
2023-05-17T23:57:18.478Z,101015.11
2023-05-17T23:59:45.674Z,101014.51
